sensor_id;sensor_type;location;lat;lon;timestamp;P1;durP1;ratioP1;P2;durP2;ratioP2
67762;SDS011;54566;52.022;5.582;2022-11-11T00:03:40;14.02;;;6.97;;
67762;SDS011;54566;52.022;5.582;2022-11-11T00:06:11;19.45;;;7.53;;
67762;SDS011;54566;52.022;5.582;2022-11-11T00:08:38;20.92;;;7.47;;
67762;SDS011;54566;52.022;5.582;2022-11-11T00:11:05;19.38;;;8.50;;
67762;SDS011;54566;52.022;5.582;2022-11-11T00:13:33;20.70;;;8.35;;
67762;SDS011;54566;52.022;5.582;2022-11-11T00:19:20;19.95;;;8.13;;
67762;SDS011;54566;52.022;5.582;2022-11-11T00:22:09;18.23;;;8.63;;
67762;SDS011;54566;52.022;5.582;2022-11-11T00:25:02;20.13;;;8.50;;
67762;SDS011;54566;52.022;5.582;2022-11-11T00:27:53;17.60;;;8.20;;
67762;SDS011;54566;52.022;5.582;2022-11-11T00:33:01;25.95;;;10.45;;
67762;SDS011;54566;52.022;5.582;2022-11-11T00:35:45;19.05;;;9.93;;
67762;SDS011;54566;52.022;5.582;2022-11-11T00:38:19;26.02;;;10.57;;
67762;SDS011;54566;52.022;5.582;2022-11-11T00:41:04;23.30;;;11.95;;
67762;SDS011;54566;52.022;5.582;2022-11-11T00:43:36;23.83;;;12.13;;
67762;SDS011;54566;52.022;5.582;2022-11-11T00:46:05;23.60;;;12.20;;
67762;SDS011;54566;52.022;5.582;2022-11-11T00:48:49;35.47;;;13.75;;
67762;SDS011;54566;52.022;5.582;2022-11-11T00:51:34;28.60;;;14.10;;
67762;SDS011;54566;52.022;5.582;2022-11-11T00:54:03;30.67;;;15.05;;
67762;SDS011;54566;52.022;5.582;2022-11-11T00:56:29;27.58;;;13.95;;
67762;SDS011;54566;52.022;5.582;2022-11-11T00:58:58;26.13;;;13.05;;
67762;SDS011;54566;52.022;5.582;2022-11-11T01:01:30;29.02;;;15.05;;
67762;SDS011;54566;52.022;5.582;2022-11-11T01:04:12;30.35;;;14.45;;
67762;SDS011;54566;52.022;5.582;2022-11-11T01:06:48;24.33;;;14.73;;
67762;SDS011;54566;52.022;5.582;2022-11-11T01:09:18;24.08;;;14.32;;
67762;SDS011;54566;52.022;5.582;2022-11-11T01:11:53;27.50;;;14.43;;
67762;SDS011;54566;52.022;5.582;2022-11-11T01:14:23;27.27;;;13.57;;
67762;SDS011;54566;52.022;5.582;2022-11-11T01:19:22;23.83;;;14.02;;
67762;SDS011;54566;52.022;5.582;2022-11-11T01:21:54;27.48;;;14.23;;
67762;SDS011;54566;52.022;5.582;2022-11-11T01:24:23;27.52;;;15.15;;
67762;SDS011;54566;52.022;5.582;2022-11-11T01:26:55;32.70;;;15.73;;
67762;SDS011;54566;52.022;5.582;2022-11-11T01:29:26;49.42;;;16.50;;
67762;SDS011;54566;52.022;5.582;2022-11-11T01:31:55;26.40;;;14.95;;
67762;SDS011;54566;52.022;5.582;2022-11-11T01:34:23;26.33;;;15.77;;
67762;SDS011;54566;52.022;5.582;2022-11-11T01:36:51;25.75;;;14.85;;
67762;SDS011;54566;52.022;5.582;2022-11-11T01:39:21;32.03;;;15.82;;
67762;SDS011;54566;52.022;5.582;2022-11-11T01:44:42;31.35;;;15.65;;
67762;SDS011;54566;52.022;5.582;2022-11-11T01:47:18;32.72;;;16.42;;
67762;SDS011;54566;52.022;5.582;2022-11-11T01:49:57;34.55;;;16.08;;
67762;SDS011;54566;52.022;5.582;2022-11-11T01:58:56;28.02;;;14.40;;
67762;SDS011;54566;52.022;5.582;2022-11-11T02:01:43;28.42;;;15.40;;
67762;SDS011;54566;52.022;5.582;2022-11-11T02:04:23;30.67;;;15.07;;
67762;SDS011;54566;52.022;5.582;2022-11-11T02:07:10;30.40;;;15.52;;
67762;SDS011;54566;52.022;5.582;2022-11-11T02:09:44;29.85;;;15.52;;
67762;SDS011;54566;52.022;5.582;2022-11-11T02:12:17;29.92;;;15.13;;
67762;SDS011;54566;52.022;5.582;2022-11-11T02:15:02;27.17;;;15.40;;
67762;SDS011;54566;52.022;5.582;2022-11-11T02:17:31;29.88;;;15.10;;
67762;SDS011;54566;52.022;5.582;2022-11-11T02:20:06;27.80;;;15.63;;
67762;SDS011;54566;52.022;5.582;2022-11-11T02:22:47;30.05;;;15.88;;
67762;SDS011;54566;52.022;5.582;2022-11-11T02:28:35;29.88;;;15.75;;
67762;SDS011;54566;52.022;5.582;2022-11-11T02:31:46;28.50;;;15.52;;
67762;SDS011;54566;52.022;5.582;2022-11-11T02:36:55;27.95;;;14.50;;
67762;SDS011;54566;52.022;5.582;2022-11-11T02:39:24;31.23;;;15.13;;
67762;SDS011;54566;52.022;5.582;2022-11-11T02:42:04;29.25;;;14.77;;
67762;SDS011;54566;52.022;5.582;2022-11-11T02:44:34;24.92;;;14.82;;
67762;SDS011;54566;52.022;5.582;2022-11-11T02:47:03;26.88;;;14.63;;
67762;SDS011;54566;52.022;5.582;2022-11-11T02:49:36;28.15;;;15.90;;
67762;SDS011;54566;52.022;5.582;2022-11-11T02:52:02;25.58;;;14.25;;
67762;SDS011;54566;52.022;5.582;2022-11-11T02:59:46;24.25;;;14.02;;
67762;SDS011;54566;52.022;5.582;2022-11-11T03:02:16;26.38;;;14.52;;
67762;SDS011;54566;52.022;5.582;2022-11-11T03:04:55;31.45;;;15.02;;
67762;SDS011;54566;52.022;5.582;2022-11-11T03:07:37;31.95;;;13.88;;
67762;SDS011;54566;52.022;5.582;2022-11-11T03:10:13;25.88;;;14.18;;
67762;SDS011;54566;52.022;5.582;2022-11-11T03:12:40;30.08;;;14.18;;
67762;SDS011;54566;52.022;5.582;2022-11-11T03:15:08;23.83;;;14.02;;
67762;SDS011;54566;52.022;5.582;2022-11-11T03:17:34;27.73;;;14.35;;
67762;SDS011;54566;52.022;5.582;2022-11-11T03:23:08;29.52;;;14.88;;
67762;SDS011;54566;52.022;5.582;2022-11-11T03:25:45;27.98;;;15.10;;
67762;SDS011;54566;52.022;5.582;2022-11-11T03:28:14;33.50;;;15.00;;
67762;SDS011;54566;52.022;5.582;2022-11-11T03:30:49;32.47;;;14.88;;
67762;SDS011;54566;52.022;5.582;2022-11-11T03:33:21;29.02;;;14.98;;
67762;SDS011;54566;52.022;5.582;2022-11-11T03:38:37;22.92;;;14.65;;
67762;SDS011;54566;52.022;5.582;2022-11-11T03:41:03;27.27;;;15.00;;
67762;SDS011;54566;52.022;5.582;2022-11-11T03:43:30;28.08;;;14.55;;
67762;SDS011;54566;52.022;5.582;2022-11-11T03:46:00;25.33;;;14.73;;
67762;SDS011;54566;52.022;5.582;2022-11-11T03:48:29;30.10;;;14.82;;
67762;SDS011;54566;52.022;5.582;2022-11-11T03:51:07;32.60;;;15.18;;
67762;SDS011;54566;52.022;5.582;2022-11-11T03:53:51;26.92;;;14.25;;
67762;SDS011;54566;52.022;5.582;2022-11-11T03:56:17;27.95;;;14.50;;
67762;SDS011;54566;52.022;5.582;2022-11-11T03:58:48;24.05;;;13.80;;
67762;SDS011;54566;52.022;5.582;2022-11-11T04:01:26;21.50;;;14.13;;
67762;SDS011;54566;52.022;5.582;2022-11-11T04:04:17;29.65;;;13.77;;
67762;SDS011;54566;52.022;5.582;2022-11-11T04:07:01;25.33;;;13.20;;
67762;SDS011;54566;52.022;5.582;2022-11-11T04:09:49;21.48;;;12.38;;
67762;SDS011;54566;52.022;5.582;2022-11-11T04:12:33;23.00;;;13.33;;
67762;SDS011;54566;52.022;5.582;2022-11-11T04:15:22;25.42;;;13.13;;
67762;SDS011;54566;52.022;5.582;2022-11-11T04:18:07;23.38;;;11.98;;
67762;SDS011;54566;52.022;5.582;2022-11-11T04:20:33;26.08;;;11.80;;
67762;SDS011;54566;52.022;5.582;2022-11-11T04:23:18;29.55;;;12.25;;
67762;SDS011;54566;52.022;5.582;2022-11-11T04:25:46;25.20;;;12.18;;
67762;SDS011;54566;52.022;5.582;2022-11-11T04:28:19;29.38;;;12.05;;
67762;SDS011;54566;52.022;5.582;2022-11-11T04:31:07;27.75;;;11.98;;
67762;SDS011;54566;52.022;5.582;2022-11-11T04:33:36;23.52;;;11.13;;
67762;SDS011;54566;52.022;5.582;2022-11-11T04:36:02;26.15;;;11.63;;
67762;SDS011;54566;52.022;5.582;2022-11-11T04:38:28;18.17;;;11.18;;
67762;SDS011;54566;52.022;5.582;2022-11-11T04:41:14;22.45;;;11.48;;
67762;SDS011;54566;52.022;5.582;2022-11-11T04:43:41;24.33;;;11.20;;
67762;SDS011;54566;52.022;5.582;2022-11-11T04:46:25;20.30;;;10.50;;
67762;SDS011;54566;52.022;5.582;2022-11-11T04:48:51;21.20;;;11.85;;
67762;SDS011;54566;52.022;5.582;2022-11-11T04:51:17;23.85;;;11.02;;
67762;SDS011;54566;52.022;5.582;2022-11-11T04:54:09;18.35;;;11.23;;
67762;SDS011;54566;52.022;5.582;2022-11-11T04:56:40;21.70;;;10.63;;
67762;SDS011;54566;52.022;5.582;2022-11-11T04:59:18;23.13;;;11.13;;
67762;SDS011;54566;52.022;5.582;2022-11-11T05:01:47;23.13;;;10.85;;
67762;SDS011;54566;52.022;5.582;2022-11-11T05:04:31;23.33;;;10.73;;
67762;SDS011;54566;52.022;5.582;2022-11-11T05:07:07;25.90;;;10.57;;
67762;SDS011;54566;52.022;5.582;2022-11-11T05:09:55;20.27;;;10.50;;
67762;SDS011;54566;52.022;5.582;2022-11-11T05:12:23;21.67;;;10.07;;
67762;SDS011;54566;52.022;5.582;2022-11-11T05:15:07;23.52;;;10.77;;
67762;SDS011;54566;52.022;5.582;2022-11-11T05:17:53;26.80;;;11.15;;
67762;SDS011;54566;52.022;5.582;2022-11-11T05:20:42;24.37;;;11.17;;
67762;SDS011;54566;52.022;5.582;2022-11-11T05:23:33;19.33;;;10.68;;
67762;SDS011;54566;52.022;5.582;2022-11-11T05:26:18;27.50;;;10.95;;
67762;SDS011;54566;52.022;5.582;2022-11-11T05:28:47;22.00;;;10.73;;
67762;SDS011;54566;52.022;5.582;2022-11-11T05:31:13;27.88;;;11.98;;
67762;SDS011;54566;52.022;5.582;2022-11-11T05:33:39;28.88;;;10.90;;
67762;SDS011;54566;52.022;5.582;2022-11-11T05:36:11;21.17;;;11.93;;
67762;SDS011;54566;52.022;5.582;2022-11-11T05:38:48;20.02;;;11.07;;
67762;SDS011;54566;52.022;5.582;2022-11-11T05:41:30;24.15;;;11.07;;
67762;SDS011;54566;52.022;5.582;2022-11-11T05:43:58;25.58;;;11.23;;
67762;SDS011;54566;52.022;5.582;2022-11-11T05:46:26;25.40;;;11.60;;
67762;SDS011;54566;52.022;5.582;2022-11-11T05:48:55;25.20;;;11.68;;
67762;SDS011;54566;52.022;5.582;2022-11-11T05:51:46;30.83;;;11.27;;
67762;SDS011;54566;52.022;5.582;2022-11-11T05:54:15;31.33;;;11.65;;
67762;SDS011;54566;52.022;5.582;2022-11-11T05:56:41;25.02;;;11.18;;
67762;SDS011;54566;52.022;5.582;2022-11-11T05:59:13;20.90;;;11.55;;
67762;SDS011;54566;52.022;5.582;2022-11-11T06:01:45;24.00;;;11.32;;
67762;SDS011;54566;52.022;5.582;2022-11-11T06:04:19;24.33;;;11.30;;
67762;SDS011;54566;52.022;5.582;2022-11-11T06:06:52;22.05;;;12.15;;
67762;SDS011;54566;52.022;5.582;2022-11-11T06:09:20;29.33;;;11.85;;
67762;SDS011;54566;52.022;5.582;2022-11-11T06:11:46;25.52;;;11.23;;
67762;SDS011;54566;52.022;5.582;2022-11-11T06:14:13;25.75;;;12.13;;
67762;SDS011;54566;52.022;5.582;2022-11-11T06:16:39;23.85;;;11.00;;
67762;SDS011;54566;52.022;5.582;2022-11-11T06:19:05;20.23;;;11.27;;
67762;SDS011;54566;52.022;5.582;2022-11-11T06:21:31;20.60;;;11.05;;
67762;SDS011;54566;52.022;5.582;2022-11-11T06:24:20;19.98;;;10.98;;
67762;SDS011;54566;52.022;5.582;2022-11-11T06:26:48;20.10;;;10.75;;
67762;SDS011;54566;52.022;5.582;2022-11-11T06:32:37;21.92;;;10.88;;
67762;SDS011;54566;52.022;5.582;2022-11-11T06:35:04;24.88;;;10.75;;
67762;SDS011;54566;52.022;5.582;2022-11-11T06:37:51;22.80;;;11.25;;
67762;SDS011;54566;52.022;5.582;2022-11-11T06:40:17;24.33;;;11.30;;
67762;SDS011;54566;52.022;5.582;2022-11-11T06:42:46;22.20;;;11.48;;
67762;SDS011;54566;52.022;5.582;2022-11-11T06:45:20;23.75;;;11.48;;
67762;SDS011;54566;52.022;5.582;2022-11-11T06:47:49;23.40;;;12.18;;
67762;SDS011;54566;52.022;5.582;2022-11-11T06:50:19;24.90;;;11.68;;
67762;SDS011;54566;52.022;5.582;2022-11-11T06:53:11;29.05;;;11.98;;
67762;SDS011;54566;52.022;5.582;2022-11-11T06:55:38;27.80;;;12.07;;
67762;SDS011;54566;52.022;5.582;2022-11-11T06:58:08;30.90;;;12.23;;
67762;SDS011;54566;52.022;5.582;2022-11-11T07:00:34;37.47;;;12.50;;
67762;SDS011;54566;52.022;5.582;2022-11-11T07:03:01;26.38;;;10.95;;
67762;SDS011;54566;52.022;5.582;2022-11-11T07:05:28;24.15;;;10.43;;
67762;SDS011;54566;52.022;5.582;2022-11-11T07:11:02;42.40;;;12.60;;
67762;SDS011;54566;52.022;5.582;2022-11-11T07:13:29;30.92;;;12.30;;
67762;SDS011;54566;52.022;5.582;2022-11-11T07:15:55;28.70;;;12.05;;
67762;SDS011;54566;52.022;5.582;2022-11-11T07:18:22;21.60;;;11.48;;
67762;SDS011;54566;52.022;5.582;2022-11-11T07:20:54;27.10;;;12.27;;
67762;SDS011;54566;52.022;5.582;2022-11-11T07:23:39;23.00;;;11.15;;
67762;SDS011;54566;52.022;5.582;2022-11-11T07:26:09;35.38;;;12.98;;
67762;SDS011;54566;52.022;5.582;2022-11-11T07:28:35;23.33;;;11.45;;
67762;SDS011;54566;52.022;5.582;2022-11-11T07:31:01;29.05;;;12.10;;
67762;SDS011;54566;52.022;5.582;2022-11-11T07:33:28;22.55;;;11.65;;
67762;SDS011;54566;52.022;5.582;2022-11-11T07:38:40;23.80;;;12.15;;
67762;SDS011;54566;52.022;5.582;2022-11-11T07:41:24;23.58;;;11.88;;
67762;SDS011;54566;52.022;5.582;2022-11-11T07:43:55;23.67;;;11.48;;
67762;SDS011;54566;52.022;5.582;2022-11-11T07:46:21;18.70;;;11.65;;
67762;SDS011;54566;52.022;5.582;2022-11-11T07:48:47;22.85;;;11.35;;
67762;SDS011;54566;52.022;5.582;2022-11-11T07:51:13;23.90;;;11.25;;
67762;SDS011;54566;52.022;5.582;2022-11-11T07:53:39;24.98;;;12.18;;
67762;SDS011;54566;52.022;5.582;2022-11-11T07:56:06;20.65;;;11.13;;
67762;SDS011;54566;52.022;5.582;2022-11-11T07:58:32;21.38;;;11.63;;
67762;SDS011;54566;52.022;5.582;2022-11-11T08:03:51;18.02;;;10.70;;
67762;SDS011;54566;52.022;5.582;2022-11-11T08:06:17;16.90;;;11.82;;
67762;SDS011;54566;52.022;5.582;2022-11-11T08:08:43;22.50;;;11.30;;
67762;SDS011;54566;52.022;5.582;2022-11-11T08:11:10;22.05;;;11.77;;
67762;SDS011;54566;52.022;5.582;2022-11-11T08:13:36;24.35;;;11.75;;
67762;SDS011;54566;52.022;5.582;2022-11-11T08:16:08;21.48;;;10.98;;
67762;SDS011;54566;52.022;5.582;2022-11-11T08:21:22;19.45;;;11.68;;
67762;SDS011;54566;52.022;5.582;2022-11-11T08:23:49;24.50;;;11.57;;
67762;SDS011;54566;52.022;5.582;2022-11-11T08:26:16;19.75;;;11.30;;
67762;SDS011;54566;52.022;5.582;2022-11-11T08:28:42;21.55;;;11.73;;
67762;SDS011;54566;52.022;5.582;2022-11-11T08:31:09;20.25;;;11.38;;
67762;SDS011;54566;52.022;5.582;2022-11-11T08:33:35;19.48;;;11.77;;
67762;SDS011;54566;52.022;5.582;2022-11-11T08:36:02;21.63;;;11.52;;
67762;SDS011;54566;52.022;5.582;2022-11-11T08:38:37;22.92;;;11.95;;
67762;SDS011;54566;52.022;5.582;2022-11-11T08:41:04;21.60;;;11.10;;
67762;SDS011;54566;52.022;5.582;2022-11-11T08:43:30;19.58;;;11.15;;
67762;SDS011;54566;52.022;5.582;2022-11-11T08:46:00;22.02;;;12.15;;
67762;SDS011;54566;52.022;5.582;2022-11-11T08:48:28;21.08;;;11.38;;
67762;SDS011;54566;52.022;5.582;2022-11-11T08:50:54;17.15;;;11.40;;
67762;SDS011;54566;52.022;5.582;2022-11-11T08:53:20;29.63;;;12.30;;
67762;SDS011;54566;52.022;5.582;2022-11-11T08:55:46;24.67;;;11.13;;
67762;SDS011;54566;52.022;5.582;2022-11-11T08:58:12;24.02;;;11.45;;
67762;SDS011;54566;52.022;5.582;2022-11-11T09:00:38;19.90;;;11.05;;
67762;SDS011;54566;52.022;5.582;2022-11-11T09:03:13;19.88;;;11.60;;
67762;SDS011;54566;52.022;5.582;2022-11-11T09:05:40;17.13;;;10.93;;
67762;SDS011;54566;52.022;5.582;2022-11-11T09:08:06;18.67;;;10.93;;
67762;SDS011;54566;52.022;5.582;2022-11-11T09:10:33;20.25;;;10.90;;
67762;SDS011;54566;52.022;5.582;2022-11-11T09:12:59;19.67;;;11.00;;
67762;SDS011;54566;52.022;5.582;2022-11-11T09:15:25;20.13;;;10.27;;
67762;SDS011;54566;52.022;5.582;2022-11-11T09:17:52;18.20;;;9.77;;
67762;SDS011;54566;52.022;5.582;2022-11-11T09:20:18;20.50;;;11.98;;
67762;SDS011;54566;52.022;5.582;2022-11-11T09:22:44;17.98;;;10.23;;
67762;SDS011;54566;52.022;5.582;2022-11-11T09:25:11;20.15;;;9.52;;
67762;SDS011;54566;52.022;5.582;2022-11-11T09:27:56;16.67;;;9.43;;
67762;SDS011;54566;52.022;5.582;2022-11-11T09:30:22;15.07;;;9.20;;
67762;SDS011;54566;52.022;5.582;2022-11-11T09:32:49;18.58;;;9.80;;
67762;SDS011;54566;52.022;5.582;2022-11-11T09:35:15;13.10;;;8.98;;
67762;SDS011;54566;52.022;5.582;2022-11-11T09:37:41;20.90;;;10.23;;
67762;SDS011;54566;52.022;5.582;2022-11-11T09:40:15;16.20;;;8.90;;
67762;SDS011;54566;52.022;5.582;2022-11-11T09:51:13;20.95;;;8.63;;
67762;SDS011;54566;52.022;5.582;2022-11-11T09:53:41;18.50;;;9.15;;
67762;SDS011;54566;52.022;5.582;2022-11-11T09:56:21;16.00;;;8.68;;
67762;SDS011;54566;52.022;5.582;2022-11-11T09:58:51;16.88;;;8.82;;
67762;SDS011;54566;52.022;5.582;2022-11-11T10:01:25;19.77;;;8.88;;
67762;SDS011;54566;52.022;5.582;2022-11-11T10:03:58;17.80;;;9.07;;
67762;SDS011;54566;52.022;5.582;2022-11-11T10:06:26;18.38;;;9.02;;
67762;SDS011;54566;52.022;5.582;2022-11-11T10:08:55;17.45;;;8.93;;
67762;SDS011;54566;52.022;5.582;2022-11-11T10:14:32;25.05;;;9.30;;
67762;SDS011;54566;52.022;5.582;2022-11-11T10:19:29;21.85;;;8.48;;
67762;SDS011;54566;52.022;5.582;2022-11-11T10:21:57;12.02;;;8.25;;
67762;SDS011;54566;52.022;5.582;2022-11-11T10:24:34;17.95;;;8.52;;
67762;SDS011;54566;52.022;5.582;2022-11-11T10:27:05;19.10;;;8.93;;
67762;SDS011;54566;52.022;5.582;2022-11-11T10:29:38;12.50;;;8.18;;
67762;SDS011;54566;52.022;5.582;2022-11-11T10:32:10;18.52;;;8.50;;
67762;SDS011;54566;52.022;5.582;2022-11-11T10:34:40;15.35;;;9.25;;
67762;SDS011;54566;52.022;5.582;2022-11-11T10:37:14;13.52;;;8.60;;
67762;SDS011;54566;52.022;5.582;2022-11-11T10:42:26;16.83;;;8.85;;
67762;SDS011;54566;52.022;5.582;2022-11-11T10:44:59;19.52;;;8.55;;
67762;SDS011;54566;52.022;5.582;2022-11-11T10:52:49;14.48;;;8.32;;
67762;SDS011;54566;52.022;5.582;2022-11-11T10:57:56;18.63;;;9.00;;
67762;SDS011;54566;52.022;5.582;2022-11-11T11:00:23;15.00;;;8.25;;
67762;SDS011;54566;52.022;5.582;2022-11-11T11:05:23;18.80;;;8.60;;
67762;SDS011;54566;52.022;5.582;2022-11-11T11:07:52;18.60;;;8.23;;
67762;SDS011;54566;52.022;5.582;2022-11-11T11:10:21;17.02;;;8.68;;
67762;SDS011;54566;52.022;5.582;2022-11-11T11:12:49;22.73;;;8.85;;
67762;SDS011;54566;52.022;5.582;2022-11-11T11:15:32;15.23;;;8.55;;
67762;SDS011;54566;52.022;5.582;2022-11-11T11:18:13;15.82;;;8.20;;
67762;SDS011;54566;52.022;5.582;2022-11-11T11:23:35;19.38;;;7.93;;
67762;SDS011;54566;52.022;5.582;2022-11-11T11:26:01;18.98;;;8.65;;
67762;SDS011;54566;52.022;5.582;2022-11-11T11:28:34;15.73;;;8.95;;
67762;SDS011;54566;52.022;5.582;2022-11-11T11:31:06;19.38;;;8.68;;
67762;SDS011;54566;52.022;5.582;2022-11-11T11:36:38;17.27;;;8.77;;
67762;SDS011;54566;52.022;5.582;2022-11-11T11:39:04;15.45;;;8.07;;
67762;SDS011;54566;52.022;5.582;2022-11-11T11:41:41;14.13;;;8.07;;
67762;SDS011;54566;52.022;5.582;2022-11-11T11:47:36;18.23;;;7.75;;
67762;SDS011;54566;52.022;5.582;2022-11-11T11:52:27;17.23;;;9.27;;
67762;SDS011;54566;52.022;5.582;2022-11-11T11:55:05;13.38;;;8.20;;
67762;SDS011;54566;52.022;5.582;2022-11-11T11:57:44;18.63;;;8.32;;
67762;SDS011;54566;52.022;5.582;2022-11-11T12:09:27;12.93;;;7.80;;
67762;SDS011;54566;52.022;5.582;2022-11-11T12:28:18;18.27;;;8.23;;
67762;SDS011;54566;52.022;5.582;2022-11-11T12:30:53;19.20;;;8.32;;
67762;SDS011;54566;52.022;5.582;2022-11-11T12:36:18;18.52;;;8.23;;
67762;SDS011;54566;52.022;5.582;2022-11-11T12:44:00;13.40;;;7.53;;
67762;SDS011;54566;52.022;5.582;2022-11-11T12:49:15;17.80;;;9.10;;
67762;SDS011;54566;52.022;5.582;2022-11-11T12:56:44;14.98;;;7.88;;
67762;SDS011;54566;52.022;5.582;2022-11-11T13:02:02;16.73;;;8.05;;
67762;SDS011;54566;52.022;5.582;2022-11-11T13:04:40;11.30;;;7.07;;
67762;SDS011;54566;52.022;5.582;2022-11-11T13:07:19;11.80;;;7.07;;
67762;SDS011;54566;52.022;5.582;2022-11-11T13:12:39;14.57;;;6.88;;
67762;SDS011;54566;52.022;5.582;2022-11-11T13:15:16;10.32;;;6.90;;
67762;SDS011;54566;52.022;5.582;2022-11-11T13:17:42;17.30;;;7.47;;
67762;SDS011;54566;52.022;5.582;2022-11-11T13:22:50;15.55;;;7.05;;
67762;SDS011;54566;52.022;5.582;2022-11-11T13:25:23;15.05;;;6.63;;
67762;SDS011;54566;52.022;5.582;2022-11-11T13:27:55;11.93;;;7.00;;
67762;SDS011;54566;52.022;5.582;2022-11-11T13:30:27;16.45;;;6.55;;
67762;SDS011;54566;52.022;5.582;2022-11-11T13:33:04;16.42;;;6.03;;
67762;SDS011;54566;52.022;5.582;2022-11-11T13:35:34;19.83;;;6.60;;
67762;SDS011;54566;52.022;5.582;2022-11-11T13:38:01;19.02;;;6.90;;
67762;SDS011;54566;52.022;5.582;2022-11-11T13:42:53;14.73;;;6.65;;
67762;SDS011;54566;52.022;5.582;2022-11-11T13:45:32;14.10;;;6.88;;
67762;SDS011;54566;52.022;5.582;2022-11-11T13:47:59;11.85;;;6.88;;
67762;SDS011;54566;52.022;5.582;2022-11-11T13:50:30;18.60;;;6.53;;
67762;SDS011;54566;52.022;5.582;2022-11-11T13:53:00;17.25;;;6.60;;
67762;SDS011;54566;52.022;5.582;2022-11-11T13:57:53;18.58;;;6.57;;
67762;SDS011;54566;52.022;5.582;2022-11-11T14:02:45;19.63;;;7.00;;
67762;SDS011;54566;52.022;5.582;2022-11-11T14:05:14;9.85;;;6.78;;
67762;SDS011;54566;52.022;5.582;2022-11-11T14:12:51;12.38;;;6.43;;
67762;SDS011;54566;52.022;5.582;2022-11-11T14:18:09;15.52;;;5.97;;
67762;SDS011;54566;52.022;5.582;2022-11-11T14:20:39;11.98;;;6.18;;
67762;SDS011;54566;52.022;5.582;2022-11-11T14:25:45;12.95;;;7.32;;
67762;SDS011;54566;52.022;5.582;2022-11-11T14:28:27;13.95;;;6.47;;
67762;SDS011;54566;52.022;5.582;2022-11-11T14:30:57;14.25;;;6.47;;
67762;SDS011;54566;52.022;5.582;2022-11-11T14:36:18;12.10;;;6.50;;
67762;SDS011;54566;52.022;5.582;2022-11-11T14:39:00;12.13;;;6.63;;
67762;SDS011;54566;52.022;5.582;2022-11-11T14:41:47;12.43;;;6.10;;
67762;SDS011;54566;52.022;5.582;2022-11-11T14:49:49;15.18;;;6.10;;
67762;SDS011;54566;52.022;5.582;2022-11-11T14:57:39;8.35;;;5.50;;
67762;SDS011;54566;52.022;5.582;2022-11-11T15:03:14;10.18;;;5.63;;
67762;SDS011;54566;52.022;5.582;2022-11-11T15:16:48;17.45;;;5.57;;
67762;SDS011;54566;52.022;5.582;2022-11-11T15:33:26;18.95;;;4.95;;
67762;SDS011;54566;52.022;5.582;2022-11-11T15:36:18;7.18;;;4.55;;
67762;SDS011;54566;52.022;5.582;2022-11-11T15:38:48;7.88;;;4.85;;
67762;SDS011;54566;52.022;5.582;2022-11-11T15:41:27;10.60;;;4.80;;
67762;SDS011;54566;52.022;5.582;2022-11-11T15:43:56;9.60;;;4.60;;
67762;SDS011;54566;52.022;5.582;2022-11-11T15:46:30;14.52;;;4.65;;
67762;SDS011;54566;52.022;5.582;2022-11-11T15:48:59;10.70;;;4.47;;
67762;SDS011;54566;52.022;5.582;2022-11-11T15:51:29;7.80;;;4.30;;
67762;SDS011;54566;52.022;5.582;2022-11-11T15:56:40;8.85;;;4.32;;
67762;SDS011;54566;52.022;5.582;2022-11-11T15:59:22;9.40;;;4.50;;
67762;SDS011;54566;52.022;5.582;2022-11-11T16:01:49;10.15;;;4.20;;
67762;SDS011;54566;52.022;5.582;2022-11-11T16:04:17;9.88;;;4.53;;
67762;SDS011;54566;52.022;5.582;2022-11-11T16:06:44;12.82;;;4.82;;
67762;SDS011;54566;52.022;5.582;2022-11-11T16:09:11;8.52;;;4.53;;
67762;SDS011;54566;52.022;5.582;2022-11-11T16:11:38;7.95;;;4.45;;
67762;SDS011;54566;52.022;5.582;2022-11-11T16:14:05;9.95;;;4.57;;
67762;SDS011;54566;52.022;5.582;2022-11-11T16:16:35;10.32;;;4.20;;
67762;SDS011;54566;52.022;5.582;2022-11-11T16:24:00;10.68;;;5.05;;
67762;SDS011;54566;52.022;5.582;2022-11-11T16:26:27;14.20;;;5.45;;
67762;SDS011;54566;52.022;5.582;2022-11-11T16:28:53;9.20;;;4.28;;
67762;SDS011;54566;52.022;5.582;2022-11-11T16:33:56;8.75;;;4.53;;
67762;SDS011;54566;52.022;5.582;2022-11-11T16:36:22;10.40;;;4.05;;
67762;SDS011;54566;52.022;5.582;2022-11-11T16:38:48;9.23;;;4.25;;
67762;SDS011;54566;52.022;5.582;2022-11-11T16:41:29;9.88;;;3.80;;
67762;SDS011;54566;52.022;5.582;2022-11-11T16:43:56;14.30;;;6.63;;
67762;SDS011;54566;52.022;5.582;2022-11-11T16:49:11;12.25;;;4.53;;
67762;SDS011;54566;52.022;5.582;2022-11-11T16:51:39;8.18;;;4.07;;
67762;SDS011;54566;52.022;5.582;2022-11-11T16:54:08;13.68;;;4.57;;
67762;SDS011;54566;52.022;5.582;2022-11-11T16:56:37;9.52;;;4.55;;
67762;SDS011;54566;52.022;5.582;2022-11-11T16:59:08;10.18;;;4.78;;
67762;SDS011;54566;52.022;5.582;2022-11-11T17:01:40;9.10;;;4.30;;
67762;SDS011;54566;52.022;5.582;2022-11-11T17:04:07;9.50;;;4.85;;
67762;SDS011;54566;52.022;5.582;2022-11-11T17:06:53;16.92;;;5.30;;
67762;SDS011;54566;52.022;5.582;2022-11-11T17:09:27;14.38;;;5.40;;
67762;SDS011;54566;52.022;5.582;2022-11-11T17:11:53;13.48;;;5.65;;
67762;SDS011;54566;52.022;5.582;2022-11-11T17:14:20;14.75;;;6.10;;
67762;SDS011;54566;52.022;5.582;2022-11-11T17:16:46;14.10;;;5.60;;
67762;SDS011;54566;52.022;5.582;2022-11-11T17:19:12;11.50;;;5.75;;
67762;SDS011;54566;52.022;5.582;2022-11-11T17:21:38;13.45;;;6.05;;
67762;SDS011;54566;52.022;5.582;2022-11-11T17:24:04;16.55;;;5.93;;
67762;SDS011;54566;52.022;5.582;2022-11-11T17:26:30;12.82;;;6.00;;
67762;SDS011;54566;52.022;5.582;2022-11-11T17:28:57;11.02;;;5.60;;
67762;SDS011;54566;52.022;5.582;2022-11-11T17:31:23;10.15;;;6.07;;
67762;SDS011;54566;52.022;5.582;2022-11-11T17:33:49;13.57;;;6.88;;
67762;SDS011;54566;52.022;5.582;2022-11-11T17:36:15;14.05;;;6.15;;
67762;SDS011;54566;52.022;5.582;2022-11-11T17:38:41;13.63;;;6.97;;
67762;SDS011;54566;52.022;5.582;2022-11-11T17:41:09;17.92;;;5.88;;
67762;SDS011;54566;52.022;5.582;2022-11-11T17:43:37;12.32;;;6.38;;
67762;SDS011;54566;52.022;5.582;2022-11-11T17:46:03;10.02;;;5.80;;
67762;SDS011;54566;52.022;5.582;2022-11-11T17:48:30;11.82;;;4.95;;
67762;SDS011;54566;52.022;5.582;2022-11-11T17:50:56;14.32;;;5.18;;
67762;SDS011;54566;52.022;5.582;2022-11-11T17:53:22;9.85;;;5.45;;
67762;SDS011;54566;52.022;5.582;2022-11-11T17:55:49;13.95;;;5.95;;
67762;SDS011;54566;52.022;5.582;2022-11-11T17:58:15;13.68;;;5.97;;
67762;SDS011;54566;52.022;5.582;2022-11-11T18:00:41;17.20;;;5.88;;
67762;SDS011;54566;52.022;5.582;2022-11-11T18:03:07;13.80;;;6.65;;
67762;SDS011;54566;52.022;5.582;2022-11-11T18:05:33;16.00;;;6.05;;
67762;SDS011;54566;52.022;5.582;2022-11-11T18:07:59;11.75;;;5.72;;
67762;SDS011;54566;52.022;5.582;2022-11-11T18:10:26;13.95;;;6.28;;
67762;SDS011;54566;52.022;5.582;2022-11-11T18:12:52;14.45;;;5.85;;
67762;SDS011;54566;52.022;5.582;2022-11-11T18:15:20;10.77;;;5.53;;
67762;SDS011;54566;52.022;5.582;2022-11-11T18:17:46;13.73;;;5.20;;
67762;SDS011;54566;52.022;5.582;2022-11-11T18:20:12;11.23;;;5.70;;
67762;SDS011;54566;52.022;5.582;2022-11-11T18:22:38;15.15;;;5.55;;
67762;SDS011;54566;52.022;5.582;2022-11-11T18:25:04;10.13;;;5.70;;
67762;SDS011;54566;52.022;5.582;2022-11-11T18:27:30;13.57;;;5.57;;